createdAt,value
2023-04-09T00:00:14.819Z,23.53
2023-04-09T00:02:43.686Z,24.90
2023-04-09T00:05:12.520Z,23.80
2023-04-09T00:07:42.594Z,22.97
2023-04-09T00:10:13.712Z,23.50
2023-04-09T00:12:42.152Z,22.83
2023-04-09T00:15:15.086Z,23.57
2023-04-09T00:17:49.546Z,23.87
2023-04-09T00:20:18.092Z,23.63
2023-04-09T00:22:46.731Z,23.40
2023-04-09T00:25:16.628Z,24.67
2023-04-09T00:27:45.071Z,23.80
2023-04-09T00:30:13.681Z,23.50
2023-04-09T00:32:42.119Z,25.43
2023-04-09T00:35:11.147Z,25.80
2023-04-09T00:37:39.478Z,24.00
2023-04-09T00:40:08.653Z,25.37
2023-04-09T00:42:38.541Z,24.37
2023-04-09T00:45:07.366Z,24.73
2023-04-09T00:47:36.146Z,24.87
2023-04-09T00:50:04.974Z,25.13
2023-04-09T00:52:33.465Z,24.63
2023-04-09T00:55:02.549Z,24.93
2023-04-09T00:57:31.029Z,24.43
2023-04-09T01:00:00.984Z,24.97
2023-04-09T01:02:31.116Z,24.00
2023-04-09T01:04:59.748Z,23.87
2023-04-09T01:07:30.397Z,24.73
2023-04-09T01:09:59.725Z,25.00
2023-04-09T01:12:31.820Z,24.80
2023-04-09T01:15:04.408Z,24.67
2023-04-09T01:17:33.170Z,24.40
2023-04-09T01:20:03.952Z,24.60
2023-04-09T01:22:34.584Z,26.07
2023-04-09T01:25:05.602Z,24.73
2023-04-09T01:27:36.657Z,25.40
2023-04-09T01:30:07.035Z,24.20
2023-04-09T01:32:35.756Z,25.30
2023-04-09T01:35:04.179Z,26.03
2023-04-09T01:37:32.592Z,24.73
2023-04-09T01:40:01.678Z,25.97
2023-04-09T01:42:30.304Z,25.30
2023-04-09T01:44:58.840Z,25.33
2023-04-09T01:47:28.816Z,25.60
2023-04-09T01:49:57.285Z,25.60
2023-04-09T01:52:25.955Z,24.93
2023-04-09T01:54:54.524Z,26.40
2023-04-09T01:57:22.956Z,25.77
2023-04-09T01:59:51.351Z,24.70
2023-04-09T02:02:20.631Z,26.53
2023-04-09T02:04:50.840Z,26.83
2023-04-09T02:07:20.740Z,26.17
2023-04-09T02:09:49.726Z,24.73
2023-04-09T02:12:18.471Z,25.97
2023-04-09T02:14:47.596Z,26.73
2023-04-09T02:17:15.942Z,26.83
2023-04-09T02:19:44.703Z,27.20
2023-04-09T02:22:14.689Z,27.00
2023-04-09T02:24:43.331Z,27.00
2023-04-09T02:27:11.842Z,28.33
2023-04-09T02:29:40.523Z,27.33
2023-04-09T02:32:10.244Z,27.90
2023-04-09T02:34:38.768Z,28.47
2023-04-09T02:37:07.534Z,28.63
2023-04-09T02:39:37.289Z,28.97
2023-04-09T02:42:07.893Z,29.07
2023-04-09T02:44:36.362Z,29.30
2023-04-09T02:47:04.778Z,29.23
2023-04-09T02:49:33.173Z,30.10
2023-04-09T02:52:01.790Z,28.03
2023-04-09T02:54:30.188Z,28.83
2023-04-09T02:57:00.033Z,29.57
2023-04-09T02:59:28.457Z,29.47
2023-04-09T03:01:57.210Z,29.73
2023-04-09T03:04:25.773Z,29.70
2023-04-09T03:06:54.271Z,30.27
2023-04-09T03:09:22.646Z,29.23
2023-04-09T03:11:51.069Z,28.47
2023-04-09T03:14:20.921Z,29.37
2023-04-09T03:16:49.351Z,30.40
2023-04-09T03:19:17.845Z,29.27
2023-04-09T03:21:46.424Z,30.40
2023-04-09T03:24:14.973Z,31.50
2023-04-09T03:26:43.324Z,30.23
2023-04-09T03:29:11.715Z,30.63
2023-04-09T03:31:41.472Z,30.03
2023-04-09T03:34:10.152Z,29.70
2023-04-09T03:36:38.523Z,30.80
2023-04-09T03:39:06.944Z,30.50
2023-04-09T03:41:35.441Z,30.37
2023-04-09T03:44:03.799Z,30.63
2023-04-09T03:46:32.246Z,29.97
2023-04-09T03:49:02.168Z,30.43
2023-04-09T03:51:30.552Z,30.23
2023-04-09T03:53:58.897Z,30.10
2023-04-09T03:56:27.304Z,30.53
2023-04-09T03:58:55.799Z,30.40
2023-04-09T04:01:24.280Z,30.27
2023-04-09T04:03:52.856Z,30.03
2023-04-09T04:06:22.762Z,29.53
2023-04-09T04:08:51.817Z,30.03
2023-04-09T04:11:20.479Z,29.53
2023-04-09T04:13:48.991Z,29.33
2023-04-09T04:16:17.506Z,28.77
2023-04-09T04:18:46.076Z,27.93
2023-04-09T04:21:15.209Z,29.53
2023-04-09T04:23:44.989Z,28.33
2023-04-09T04:26:13.561Z,28.53
2023-04-09T04:28:42.002Z,27.10
2023-04-09T04:31:10.996Z,28.90
2023-04-09T04:33:39.592Z,27.77
2023-04-09T04:36:08.347Z,29.37
2023-04-09T04:38:36.780Z,28.97
2023-04-09T04:41:07.967Z,28.33
2023-04-09T04:43:36.442Z,28.33
2023-04-09T04:46:06.271Z,27.63
2023-04-09T04:48:34.779Z,27.53
2023-04-09T04:51:03.439Z,27.63
2023-04-09T04:53:31.817Z,27.03
2023-04-09T04:56:00.445Z,28.00
2023-04-09T04:58:30.896Z,27.27
2023-04-09T05:01:00.578Z,26.73
2023-04-09T05:03:29.185Z,26.70
2023-04-09T05:05:57.612Z,26.37
2023-04-09T05:08:26.044Z,27.30
2023-04-09T05:10:56.127Z,27.60
2023-04-09T05:13:24.862Z,27.13
2023-04-09T05:15:54.730Z,26.33
2023-04-09T05:18:23.139Z,27.83
2023-04-09T05:20:51.569Z,27.13
2023-04-09T05:23:20.028Z,26.50
2023-04-09T05:25:50.767Z,27.83
2023-04-09T05:28:19.217Z,27.17
2023-04-09T05:30:48.304Z,27.43
2023-04-09T05:33:18.108Z,28.20
2023-04-09T05:35:46.736Z,26.87
2023-04-09T05:38:15.176Z,26.73
2023-04-09T05:40:45.173Z,26.87
2023-04-09T05:43:13.752Z,28.07
2023-04-09T05:45:42.597Z,27.87
2023-04-09T05:48:11.047Z,28.67
2023-04-09T05:50:53.401Z,29.17
2023-04-09T05:53:23.533Z,28.50
2023-04-09T05:55:51.917Z,28.03
2023-04-09T05:58:20.525Z,27.73
2023-04-09T06:00:51.500Z,29.10
2023-04-09T06:03:20.809Z,27.60
2023-04-09T06:05:50.738Z,28.10
2023-04-09T06:08:19.230Z,28.73
2023-04-09T06:10:47.635Z,28.47
2023-04-09T06:13:16.177Z,28.10
2023-04-09T06:15:44.783Z,28.37
2023-04-09T06:18:13.383Z,28.60
2023-04-09T06:20:41.828Z,27.37
2023-04-09T06:23:11.888Z,28.13
2023-04-09T06:25:40.207Z,27.47
2023-04-09T06:28:08.827Z,27.87
2023-04-09T06:30:38.272Z,28.27
2023-04-09T06:33:06.964Z,28.93
2023-04-09T06:35:35.807Z,28.83
2023-04-09T06:38:04.362Z,27.43
2023-04-09T06:40:35.109Z,27.97
2023-04-09T06:43:03.573Z,29.60
2023-04-09T06:45:32.856Z,29.30
2023-04-09T06:48:01.276Z,28.77
2023-04-09T06:50:29.712Z,29.00
2023-04-09T06:52:58.833Z,27.77
2023-04-09T06:55:27.946Z,28.43
2023-04-09T06:57:57.924Z,27.53
2023-04-09T07:00:27.100Z,28.23
2023-04-09T07:02:55.934Z,27.37
2023-04-09T07:05:24.591Z,27.13
2023-04-09T07:07:52.928Z,27.20
2023-04-09T07:10:23.386Z,28.37
2023-04-09T07:12:52.089Z,28.07
2023-04-09T07:15:22.171Z,28.27
2023-04-09T07:17:50.793Z,28.33
2023-04-09T07:20:19.369Z,28.47
2023-04-09T07:22:47.942Z,29.43
2023-04-09T07:25:16.508Z,29.83
2023-04-09T07:27:47.111Z,29.20
2023-04-09T07:30:15.616Z,30.30
2023-04-09T07:32:45.713Z,28.43
2023-04-09T07:35:14.140Z,28.20
2023-04-09T07:37:42.689Z,29.60
2023-04-09T07:40:11.299Z,29.27
2023-04-09T07:42:40.010Z,30.57
2023-04-09T07:45:09.062Z,29.27
2023-04-09T07:47:37.574Z,30.07
2023-04-09T07:50:08.035Z,30.07
2023-04-09T07:52:36.628Z,31.37
2023-04-09T07:55:05.233Z,30.67
2023-04-09T07:57:33.716Z,31.90
2023-04-09T08:00:02.495Z,31.40
2023-04-09T08:02:31.290Z,31.97
2023-04-09T08:05:00.235Z,31.47
2023-04-09T08:07:30.144Z,32.73
2023-04-09T08:09:58.899Z,31.57
2023-04-09T08:12:27.286Z,32.47
2023-04-09T08:14:56.145Z,34.23
2023-04-09T08:17:24.757Z,35.63
2023-04-09T08:19:53.395Z,34.03
2023-04-09T08:22:21.817Z,36.00
2023-04-09T08:24:56.297Z,34.40
2023-04-09T08:27:24.929Z,36.40
2023-04-09T08:29:53.523Z,34.03
2023-04-09T08:32:22.273Z,35.23
2023-04-09T08:34:50.743Z,34.10
2023-04-09T08:37:19.177Z,36.40
2023-04-09T08:39:47.732Z,35.00
2023-04-09T08:42:17.483Z,34.10
2023-04-09T08:44:46.007Z,35.63
2023-04-09T08:47:14.335Z,33.23
2023-04-09T08:49:42.768Z,35.17
2023-04-09T08:52:11.384Z,35.97
2023-04-09T08:54:39.914Z,34.17
2023-04-09T08:57:08.365Z,34.50
2023-04-09T08:59:38.146Z,35.20
2023-04-09T09:02:09.731Z,34.13
2023-04-09T09:04:47.837Z,35.03
2023-04-09T09:07:16.457Z,34.80
2023-04-09T09:09:54.447Z,33.73
2023-04-09T09:12:39.135Z,33.47
2023-04-09T09:15:27.087Z,34.73
2023-04-09T09:17:57.488Z,33.43
2023-04-09T09:20:29.363Z,34.03
2023-04-09T09:22:58.028Z,33.90
2023-04-09T09:25:26.879Z,33.73
2023-04-09T09:27:57.120Z,34.57
2023-04-09T09:30:26.051Z,32.97
2023-04-09T09:32:55.281Z,35.50
2023-04-09T09:35:25.625Z,34.77
2023-04-09T09:38:03.846Z,34.43
2023-04-09T09:40:32.375Z,33.33
2023-04-09T09:43:01.018Z,33.77
2023-04-09T09:45:29.480Z,34.93
2023-04-09T09:47:57.872Z,33.73
2023-04-09T09:50:28.580Z,32.30
2023-04-09T09:52:59.841Z,33.80
2023-04-09T09:55:28.322Z,32.50
2023-04-09T09:57:56.744Z,32.10
2023-04-09T10:00:25.660Z,31.73
2023-04-09T10:02:56.752Z,32.77
2023-04-09T10:05:27.766Z,33.77
2023-04-09T10:07:58.814Z,33.17
2023-04-09T10:10:27.372Z,33.37
2023-04-09T10:12:56.333Z,33.97
2023-04-09T10:15:24.968Z,35.53
2023-04-09T10:17:53.646Z,36.07
2023-04-09T10:20:27.211Z,36.70
2023-04-09T10:22:55.682Z,36.87
2023-04-09T10:25:26.422Z,36.10
2023-04-09T10:28:01.320Z,35.47
2023-04-09T10:30:38.102Z,37.67
2023-04-09T10:33:12.715Z,37.80
2023-04-09T10:35:41.169Z,38.33
2023-04-09T10:38:10.827Z,38.33
2023-04-09T10:40:49.621Z,37.30
2023-04-09T10:43:20.036Z,37.70
2023-04-09T10:45:53.261Z,37.17
2023-04-09T10:48:21.843Z,37.03
2023-04-09T10:50:51.178Z,36.10
2023-04-09T10:53:23.810Z,37.37
2023-04-09T10:55:53.930Z,37.40
2023-04-09T10:58:22.345Z,37.30
2023-04-09T11:00:51.344Z,37.40
2023-04-09T11:03:27.417Z,37.40
2023-04-09T11:05:57.859Z,36.23
2023-04-09T11:08:27.532Z,35.37
2023-04-09T11:10:58.493Z,36.83
2023-04-09T11:13:26.879Z,34.70
2023-04-09T11:15:56.077Z,35.27
2023-04-09T11:18:24.530Z,36.47
2023-04-09T11:20:56.150Z,36.13
2023-04-09T11:23:24.651Z,37.57
2023-04-09T11:25:53.379Z,36.47
2023-04-09T11:28:23.322Z,37.50
2023-04-09T11:30:52.581Z,36.43
2023-04-09T11:33:21.044Z,38.03
2023-04-09T11:35:49.686Z,36.93
2023-04-09T11:38:18.118Z,36.67
2023-04-09T11:40:49.237Z,36.40
2023-04-09T11:43:18.489Z,36.43
2023-04-09T11:45:48.924Z,35.27
2023-04-09T11:48:18.824Z,37.00
2023-04-09T11:50:47.570Z,36.83
2023-04-09T11:53:19.930Z,36.10
2023-04-09T11:55:49.132Z,37.10
2023-04-09T11:58:17.637Z,35.63
2023-04-09T12:00:46.657Z,36.97
2023-04-09T12:03:17.314Z,36.37
2023-04-09T12:05:50.207Z,35.97
2023-04-09T12:08:19.522Z,34.83
2023-04-09T12:10:47.931Z,35.73
2023-04-09T12:13:16.779Z,34.70
2023-04-09T12:15:45.539Z,34.47
2023-04-09T12:18:14.532Z,34.40
2023-04-09T12:20:48.104Z,33.63
2023-04-09T12:23:16.500Z,35.30
2023-04-09T12:25:45.293Z,33.60
2023-04-09T12:28:16.293Z,33.00
2023-04-09T12:30:46.350Z,32.40
2023-04-09T12:33:14.772Z,32.07
2023-04-09T12:35:45.159Z,31.43
2023-04-09T12:38:14.359Z,31.33
2023-04-09T12:40:43.345Z,32.20
2023-04-09T12:43:11.826Z,31.77
2023-04-09T12:45:40.301Z,31.10
2023-04-09T12:48:08.856Z,30.93
2023-04-09T12:50:37.634Z,32.90
2023-04-09T12:53:07.419Z,30.93
2023-04-09T12:55:36.171Z,31.63
2023-04-09T12:58:11.123Z,31.97
2023-04-09T13:00:39.587Z,32.90
2023-04-09T13:03:08.264Z,30.70
2023-04-09T13:05:36.813Z,29.13
2023-04-09T13:08:05.326Z,29.83
2023-04-09T13:10:35.313Z,30.37
2023-04-09T13:13:03.913Z,30.03
2023-04-09T13:15:32.514Z,30.80
2023-04-09T13:18:00.928Z,28.40
2023-04-09T13:20:29.640Z,29.13
2023-04-09T13:22:57.987Z,28.33
2023-04-09T13:25:26.482Z,28.47
2023-04-09T13:27:56.390Z,27.80
2023-04-09T13:30:25.926Z,28.03
2023-04-09T13:32:55.128Z,27.87
2023-04-09T13:35:24.708Z,27.93
2023-04-09T13:37:53.073Z,27.20
2023-04-09T13:40:21.585Z,28.60
2023-04-09T13:42:50.603Z,28.20
2023-04-09T13:45:21.112Z,27.60
2023-04-09T13:47:50.081Z,26.97
2023-04-09T13:50:21.925Z,26.87
2023-04-09T13:52:50.553Z,26.47
2023-04-09T13:55:19.185Z,25.40
2023-04-09T13:57:47.555Z,24.47
2023-04-09T14:00:16.388Z,24.77
2023-04-09T14:02:46.673Z,24.90
2023-04-09T14:05:15.197Z,25.50
2023-04-09T14:07:43.626Z,23.63
2023-04-09T14:10:12.678Z,25.17
2023-04-09T14:12:41.646Z,24.77
2023-04-09T14:15:11.268Z,23.47
2023-04-09T14:17:39.985Z,24.20
2023-04-09T14:20:10.545Z,23.37
2023-04-09T14:22:38.906Z,22.73
2023-04-09T14:25:08.162Z,23.43
2023-04-09T14:27:36.781Z,22.03
2023-04-09T14:30:06.099Z,21.93
2023-04-09T14:32:34.784Z,21.40
2023-04-09T14:35:03.249Z,21.63
2023-04-09T14:37:33.023Z,20.77
2023-04-09T14:40:01.958Z,20.30
2023-04-09T14:42:30.666Z,20.07
2023-04-09T14:44:59.128Z,18.83
2023-04-09T14:47:29.366Z,18.57
2023-04-09T14:49:59.505Z,18.63
2023-04-09T14:52:30.504Z,18.67
2023-04-09T14:55:00.557Z,19.53
2023-04-09T14:57:28.988Z,18.57
2023-04-09T14:59:57.364Z,17.30
2023-04-09T15:02:26.019Z,16.97
2023-04-09T15:04:54.657Z,16.47
2023-04-09T15:07:24.970Z,16.57
2023-04-09T15:09:53.584Z,15.47
2023-04-09T15:12:23.331Z,15.03
2023-04-09T15:14:52.381Z,16.80
2023-04-09T15:17:20.772Z,17.60
2023-04-09T15:19:49.653Z,15.30
2023-04-09T15:22:19.231Z,16.03
2023-04-09T15:24:47.655Z,14.83
2023-04-09T15:27:16.169Z,14.20
2023-04-09T15:29:46.168Z,14.47
2023-04-09T15:32:15.933Z,14.23
2023-04-09T15:34:44.887Z,13.83
2023-04-09T15:37:13.301Z,14.00
2023-04-09T15:39:41.734Z,14.97
2023-04-09T15:42:11.672Z,15.23
2023-04-09T15:44:41.946Z,13.87
2023-04-09T15:47:12.268Z,13.73
2023-04-09T15:49:40.907Z,13.20
2023-04-09T15:52:09.424Z,13.67
2023-04-09T15:54:37.869Z,14.50
2023-04-09T15:57:07.134Z,13.80
2023-04-09T15:59:35.885Z,13.77
2023-04-09T16:02:04.978Z,12.43
2023-04-09T16:04:34.831Z,12.37
2023-04-09T16:07:04.456Z,12.53
2023-04-09T16:09:33.204Z,10.77
2023-04-09T16:12:01.654Z,10.73
2023-04-09T16:14:30.394Z,10.70
2023-04-09T16:16:58.862Z,13.67
2023-04-09T16:19:27.386Z,14.00
2023-04-09T16:21:57.684Z,13.53
2023-04-09T16:24:27.177Z,13.83
2023-04-09T16:26:57.017Z,13.57
2023-04-09T16:29:26.379Z,13.73
2023-04-09T16:31:55.149Z,12.80
2023-04-09T16:34:23.988Z,12.97
2023-04-09T16:36:52.342Z,14.13
2023-04-09T16:39:22.107Z,13.33
2023-04-09T16:41:50.792Z,13.33
2023-04-09T16:44:19.407Z,13.77
2023-04-09T16:46:47.891Z,13.50
2023-04-09T16:49:16.451Z,13.17
2023-04-09T16:51:46.179Z,13.43
2023-04-09T16:54:14.667Z,13.13
2023-04-09T16:56:44.560Z,13.57
2023-04-09T16:59:13.624Z,13.83
2023-04-09T17:01:42.178Z,13.03
2023-04-09T17:04:10.755Z,13.60
2023-04-09T17:06:39.605Z,13.50
2023-04-09T17:09:08.092Z,13.23
2023-04-09T17:11:38.042Z,12.90
2023-04-09T17:14:11.592Z,13.37
2023-04-09T17:16:40.027Z,13.00
2023-04-09T17:19:08.962Z,13.07
2023-04-09T17:21:38.021Z,13.20
2023-04-09T17:24:07.870Z,13.80
2023-04-09T17:26:36.603Z,13.30
2023-04-09T17:29:05.279Z,13.93
2023-04-09T17:31:35.140Z,12.80
2023-04-09T17:34:03.592Z,13.00
2023-04-09T17:36:32.583Z,13.23
2023-04-09T17:39:00.998Z,13.60
2023-04-09T17:41:29.485Z,13.27
2023-04-09T17:43:58.181Z,13.00
2023-04-09T17:46:26.798Z,13.70
2023-04-09T17:48:56.599Z,13.70
2023-04-09T17:51:24.994Z,14.03
2023-04-09T17:53:54.827Z,13.03
2023-04-09T17:56:23.713Z,13.63
2023-04-09T17:58:52.349Z,12.77
2023-04-09T18:01:21.162Z,13.60
2023-04-09T18:03:50.136Z,14.57
2023-04-09T18:06:20.176Z,14.37
2023-04-09T18:08:50.322Z,13.80
2023-04-09T18:11:19.291Z,13.80
2023-04-09T18:13:47.868Z,14.03
2023-04-09T18:16:17.629Z,13.10
2023-04-09T18:18:46.305Z,13.53
2023-04-09T18:21:15.255Z,13.87
2023-04-09T18:23:45.285Z,13.53
2023-04-09T18:26:15.296Z,13.63
2023-04-09T18:28:43.682Z,13.33
2023-04-09T18:31:12.968Z,13.77
2023-04-09T18:33:41.559Z,13.07
2023-04-09T18:36:10.590Z,13.93
2023-04-09T18:38:39.789Z,14.50
2023-04-09T18:41:11.395Z,13.50
2023-04-09T18:43:39.875Z,14.10
2023-04-09T18:46:08.469Z,13.83
2023-04-09T18:48:36.898Z,13.83
2023-04-09T18:51:05.609Z,13.93
2023-04-09T18:53:34.049Z,14.23
2023-04-09T18:56:02.497Z,14.33
2023-04-09T18:58:33.664Z,13.60
2023-04-09T19:01:02.508Z,12.93
2023-04-09T19:03:31.298Z,13.10
2023-04-09T19:06:00.151Z,13.37
2023-04-09T19:08:32.402Z,12.97
2023-04-09T19:11:00.931Z,13.13
2023-04-09T19:13:30.672Z,13.03
2023-04-09T19:16:00.709Z,12.83
2023-04-09T19:18:29.170Z,13.03
2023-04-09T19:20:57.680Z,12.13
2023-04-09T19:23:26.252Z,11.73
2023-04-09T19:25:55.291Z,12.93
2023-04-09T19:28:23.854Z,13.03
2023-04-09T19:30:53.927Z,13.60
2023-04-09T19:33:23.812Z,12.23
2023-04-09T19:35:52.420Z,13.03
2023-04-09T19:38:21.410Z,14.70
2023-04-09T19:40:49.763Z,13.37
2023-04-09T19:43:18.302Z,13.67
2023-04-09T19:45:47.009Z,13.20
2023-04-09T19:48:15.952Z,12.57
2023-04-09T19:50:46.215Z,12.80
2023-04-09T19:53:14.585Z,13.13
2023-04-09T19:55:43.191Z,12.17
2023-04-09T19:58:11.776Z,12.00
2023-04-09T20:00:40.379Z,12.83
2023-04-09T20:03:09.310Z,13.20
2023-04-09T20:05:38.346Z,13.37
2023-04-09T20:08:12.385Z,12.80
2023-04-09T20:10:46.470Z,12.83
2023-04-09T20:13:15.035Z,13.00
2023-04-09T20:15:44.302Z,12.07
2023-04-09T20:18:12.769Z,13.33
2023-04-09T20:20:41.536Z,12.63
2023-04-09T20:23:11.323Z,12.17
2023-04-09T20:25:39.885Z,12.17
2023-04-09T20:28:09.899Z,12.47
2023-04-09T20:30:38.505Z,12.53
2023-04-09T20:33:07.030Z,12.07
2023-04-09T20:35:36.611Z,12.00
2023-04-09T20:38:05.092Z,12.37
2023-04-09T20:40:36.641Z,12.23
2023-04-09T20:43:05.304Z,12.40
2023-04-09T20:45:33.860Z,12.50
2023-04-09T20:48:02.552Z,12.57
2023-04-09T20:50:31.989Z,11.90
2023-04-09T20:53:00.459Z,12.57
2023-04-09T20:55:29.184Z,11.80
2023-04-09T20:58:00.359Z,11.30
2023-04-09T21:00:31.604Z,11.10
2023-04-09T21:03:00.168Z,11.40
2023-04-09T21:05:28.851Z,12.03
2023-04-09T21:07:57.196Z,11.63
2023-04-09T21:10:25.717Z,12.17
2023-04-09T21:12:54.455Z,12.07
2023-04-09T21:15:24.297Z,12.37
2023-04-09T21:17:52.780Z,12.27
2023-04-09T21:20:21.370Z,12.40
2023-04-09T21:22:54.266Z,12.27
2023-04-09T21:25:22.926Z,12.63
2023-04-09T21:27:51.892Z,11.90
2023-04-09T21:30:20.829Z,11.40
2023-04-09T21:32:51.721Z,11.33
2023-04-09T21:35:20.302Z,11.50
2023-04-09T21:37:49.005Z,12.00
2023-04-09T21:40:17.917Z,11.80
2023-04-09T21:42:46.420Z,11.13
2023-04-09T21:45:14.757Z,10.73
2023-04-09T21:47:43.493Z,11.50
2023-04-09T21:50:13.537Z,10.83
2023-04-09T21:52:42.015Z,11.37
2023-04-09T21:55:10.945Z,11.40
2023-04-09T21:57:39.371Z,11.37
2023-04-09T22:00:09.408Z,11.23
2023-04-09T22:02:39.260Z,11.53
2023-04-09T22:05:08.617Z,11.00
2023-04-09T22:07:39.866Z,10.53
2023-04-09T22:10:09.240Z,10.83
2023-04-09T22:12:37.637Z,11.23
2023-04-09T22:15:06.535Z,11.13
2023-04-09T22:17:35.012Z,11.10
2023-04-09T22:20:04.928Z,10.93
2023-04-09T22:22:33.698Z,11.00
2023-04-09T22:25:04.571Z,11.10
2023-04-09T22:27:33.094Z,11.17
2023-04-09T22:30:01.565Z,11.90
2023-04-09T22:32:33.304Z,10.37
2023-04-09T22:35:01.980Z,11.97
2023-04-09T22:37:30.816Z,11.30
2023-04-09T22:39:59.340Z,11.10
2023-04-09T22:42:29.137Z,11.43
2023-04-09T22:44:57.580Z,11.30
2023-04-09T22:47:26.549Z,11.73
2023-04-09T22:49:56.160Z,11.67
2023-04-09T22:52:24.671Z,11.63
2023-04-09T22:54:53.499Z,10.83
2023-04-09T22:57:21.922Z,10.10
2023-04-09T22:59:51.637Z,10.80
2023-04-09T23:02:20.777Z,10.30
2023-04-09T23:04:49.436Z,11.53
2023-04-09T23:07:18.361Z,10.93
2023-04-09T23:09:47.282Z,10.00
2023-04-09T23:12:15.692Z,10.90
2023-04-09T23:14:44.170Z,11.37
2023-04-09T23:17:14.178Z,11.37
2023-04-09T23:19:43.507Z,10.80
2023-04-09T23:22:12.223Z,11.30
2023-04-09T23:24:40.968Z,10.83
2023-04-09T23:27:09.457Z,10.77
2023-04-09T23:29:37.992Z,10.63
2023-04-09T23:32:06.513Z,10.03
2023-04-09T23:34:36.380Z,10.03
2023-04-09T23:37:04.796Z,9.60
2023-04-09T23:39:34.395Z,10.23
2023-04-09T23:42:03.144Z,9.27
2023-04-09T23:44:31.750Z,9.07
2023-04-09T23:47:01.470Z,9.47
2023-04-09T23:49:30.648Z,9.27
2023-04-09T23:52:00.863Z,8.97
2023-04-09T23:54:29.422Z,9.53
2023-04-09T23:56:58.670Z,9.47
2023-04-09T23:59:27.390Z,9.43
